Station History

Weather Underground - logo

Station Historical Data
Daily Summary for November 16, 2017 Units:  English    Metric   Both
« Previous Day
Next Day »
Daily Weekly Monthly Yearly Custom
  High: Low: Average:
Temperature: 72.1 °F 58.4 °F 64.5 °F
Dew Point: 57.2 °F 51.2 °F 54 °F
Humidity: 93 % 53 % 70 %
Wind Speed: 5.8 mph 0.0 mph 0.4 mph
Wind Gust: 5.8 mph - -
Wind:- - SSE
Pressure: 29.97 in 29.88 in -
Precipitation: 0.07 in    
Historical Graphs
 
 
Tabular Data for November 16, 2017
Time Temperature Dew Point Pressure Wind Wind Speed Wind Gust Humidity Rainfall Rate (Hourly)
00:02 62.1 °F 52.6 °F 29.94 in Calm     71 % 0.00 in
00:07 62.2 °F 52.7 °F 29.93 in Calm     71 % 0.00 in
00:17 62.3 °F 53.2 °F 29.94 in Calm     72 % 0.00 in
00:22 62.0 °F 52.9 °F 29.94 in Calm     72 % 0.00 in
00:27 61.8 °F 53.4 °F 29.94 in Calm     74 % 0.00 in
00:32 61.7 °F 52.6 °F 29.94 in Calm     72 % 0.00 in
00:37 61.7 °F 52.6 °F 29.93 in Calm     72 % 0.00 in
00:43 61.7 °F 52.6 °F 29.93 in Calm     72 % 0.00 in
00:48 61.7 °F 52.6 °F 29.94 in Calm     72 % 0.00 in
00:53 61.6 °F 52.9 °F 29.94 in Calm     73 % 0.00 in
00:58 61.5 °F 53.5 °F 29.94 in Calm     75 % 0.00 in
01:03 61.3 °F 53.7 °F 29.94 in Calm     76 % 0.00 in
01:08 61.1 °F 53.5 °F 29.94 in Calm     76 % 0.00 in
01:13 60.9 °F 53.6 °F 29.94 in Calm     77 % 0.00 in
01:18 60.8 °F 53.5 °F 29.94 in Calm     77 % 0.00 in
01:23 60.8 °F 53.5 °F 29.94 in Calm     77 % 0.00 in
01:28 60.8 °F 53.5 °F 29.94 in Calm     77 % 0.00 in
01:33 60.8 °F 53.5 °F 29.94 in Calm     77 % 0.00 in
01:38 60.7 °F 53.8 °F 29.94 in Calm     78 % 0.00 in
01:43 60.6 °F 54.0 °F 29.94 in Calm     79 % 0.00 in
01:48 60.5 °F 53.6 °F 29.94 in Calm     78 % 0.00 in
01:53 60.4 °F 53.5 °F 29.94 in Calm     78 % 0.00 in
01:58 60.4 °F 53.5 °F 29.94 in Calm     78 % 0.00 in
02:03 60.3 °F 53.1 °F 29.93 in Calm     77 % 0.00 in
02:08 60.2 °F 53.0 °F 29.93 in Calm     77 % 0.00 in
02:09 60.2 °F 52.6 °F 29.93 in Calm     76 % 0.00 in
02:19 60.3 °F 53.1 °F 29.93 in Calm     77 % 0.00 in
02:24 60.3 °F 53.4 °F 29.93 in Calm     78 % 0.00 in
02:29 60.1 °F 53.2 °F 29.93 in Calm     78 % 0.00 in
02:34 60.0 °F 53.5 °F 29.93 in Calm     79 % 0.00 in
02:39 59.9 °F 53.4 °F 29.93 in Calm     79 % 0.00 in
02:44 60.0 °F 53.5 °F 29.93 in Calm     79 % 0.00 in
02:49 60.1 °F 53.9 °F 29.93 in SE 1.2 mph   80 % 0.00 in
02:54 59.9 °F 53.7 °F 29.94 in Calm     80 % 0.00 in
02:59 59.8 °F 53.3 °F 29.94 in Calm     79 % 0.00 in
03:04 59.9 °F 53.0 °F 29.93 in Calm     78 % 0.00 in
03:09 60.0 °F 53.1 °F 29.93 in SE 1.2 mph   78 % 0.00 in
03:15 60.4 °F 52.8 °F 29.93 in Calm     76 % 0.00 in
03:20 60.8 °F 52.8 °F 29.92 in Calm     75 % 0.00 in
03:25 60.9 °F 52.9 °F 29.93 in Calm     75 % 0.00 in
03:30 61.0 °F 52.7 °F 29.93 in Calm     74 % 0.00 in
03:35 61.1 °F 52.7 °F 29.92 in Calm     74 % 0.00 in
03:40 61.1 °F 52.4 °F 29.92 in Calm     73 % 0.00 in
03:45 61.2 °F 52.5 °F 29.92 in Calm     73 % 0.00 in
03:50 61.2 °F 52.8 °F 29.93 in Calm     74 % 0.00 in
03:55 61.2 °F 53.2 °F 29.93 in Calm     75 % 0.00 in
04:00 61.2 °F 52.5 °F 29.93 in Calm     73 % 0.00 in
04:05 61.2 °F 52.5 °F 29.93 in Calm     73 % 0.00 in
04:10 61.2 °F 51.3 °F 29.92 in Calm     70 % 0.00 in
04:15 61.2 °F 51.7 °F 29.92 in Calm     71 % 0.00 in
04:20 61.3 °F 51.4 °F 29.92 in Calm     70 % 0.00 in
04:25 61.4 °F 51.9 °F 29.92 in Calm     71 % 0.00 in
04:30 61.3 °F 51.8 °F 29.92 in Calm     71 % 0.00 in
04:35 61.2 °F 52.5 °F 29.92 in Calm     73 % 0.00 in
04:40 61.1 °F 51.2 °F 29.92 in Calm     70 % 0.00 in
04:45 61.1 °F 51.6 °F 29.92 in Calm     71 % 0.00 in
04:50 61.1 °F 51.6 °F 29.92 in Calm     71 % 0.00 in
04:56 61.2 °F 51.3 °F 29.92 in Calm     70 % 0.00 in
05:01 61.1 °F 52.7 °F 29.92 in Calm     74 % 0.00 in
05:06 60.7 °F 52.0 °F 29.92 in Calm     73 % 0.00 in
05:11 60.6 °F 51.9 °F 29.92 in Calm     73 % 0.00 in
05:16 60.5 °F 51.4 °F 29.92 in Calm     72 % 0.00 in
05:21 60.6 °F 51.5 °F 29.92 in Calm     72 % 0.00 in
05:26 60.5 °F 51.8 °F 29.92 in Calm     73 % 0.00 in
05:31 60.4 °F 52.1 °F 29.91 in Calm     74 % 0.00 in
05:36 60.3 °F 52.0 °F 29.91 in Calm     74 % 0.00 in
05:41 60.4 °F 52.4 °F 29.91 in Calm     75 % 0.00 in
05:46 60.3 °F 53.1 °F 29.91 in Calm     77 % 0.00 in
05:51 60.1 °F 52.9 °F 29.91 in Calm     77 % 0.00 in
05:56 60.0 °F 52.8 °F 29.91 in Calm     77 % 0.00 in
06:01 60.0 °F 52.4 °F 29.91 in Calm     76 % 0.00 in
06:05 59.9 °F 52.7 °F 29.91 in Calm     77 % 0.00 in
06:10 59.9 °F 52.7 °F 29.91 in Calm     77 % 0.00 in
06:15 59.7 °F 52.5 °F 29.91 in Calm     77 % 0.00 in
06:18 59.6 °F 52.4 °F 29.91 in Calm     77 % 0.00 in
06:23 59.6 °F 52.4 °F 29.91 in Calm     77 % 0.00 in
06:28 59.5 °F 52.3 °F 29.92 in Calm     77 % 0.00 in
06:33 59.5 °F 52.3 °F 29.92 in Calm     77 % 0.00 in
06:38 59.5 °F 52.3 °F 29.92 in Calm     77 % 0.00 in
06:43 59.5 °F 52.3 °F 29.92 in Calm     77 % 0.00 in
06:48 59.4 °F 52.2 °F 29.92 in Calm     77 % 0.00 in
06:53 59.4 °F 52.2 °F 29.92 in Calm     77 % 0.00 in
06:58 59.4 °F 52.2 °F 29.92 in Calm     77 % 0.00 in
07:03 59.5 °F 52.6 °F 29.92 in Calm     78 % 0.00 in
07:08 59.5 °F 52.3 °F 29.93 in Calm     77 % 0.00 in
07:13 59.5 °F 52.3 °F 29.93 in Calm     77 % 0.00 in
07:18 59.7 °F 52.5 °F 29.93 in Calm     77 % 0.00 in
07:23 59.7 °F 52.5 °F 29.94 in Calm     77 % 0.00 in
07:28 59.8 °F 52.6 °F 29.94 in Calm     77 % 0.00 in
07:33 59.9 °F 52.7 °F 29.93 in Calm     77 % 0.00 in
07:38 60.0 °F 52.8 °F 29.94 in SE 1.2 mph   77 % 0.00 in
07:43 60.2 °F 52.6 °F 29.94 in Calm     76 % 0.00 in
07:48 60.4 °F 52.8 °F 29.94 in SE 1.2 mph   76 % 0.00 in
07:53 60.6 °F 52.6 °F 29.94 in Calm     75 % 0.00 in
07:58 60.9 °F 52.9 °F 29.94 in Calm     75 % 0.00 in
08:03 61.3 °F 52.9 °F 29.94 in Calm     74 % 0.00 in
08:08 61.6 °F 53.2 °F 29.94 in Calm     74 % 0.00 in
08:13 61.9 °F 52.8 °F 29.94 in ESE 1.2 mph 1.2 mph 72 % 0.00 in
08:18 62.2 °F 52.7 °F 29.94 in Calm   0.2 mph 71 % 0.00 in
08:23 62.5 °F 52.2 °F 29.94 in Calm     69 % 0.00 in
08:28 62.9 °F 52.2 °F 29.94 in SE 1.2 mph 1.2 mph 68 % 0.00 in
08:33 63.3 °F 52.2 °F 29.94 in Calm     67 % 0.00 in
08:38 63.6 °F 52.0 °F 29.94 in Calm     66 % 0.00 in
08:43 63.9 °F 51.9 °F 29.95 in Calm     65 % 0.00 in
08:48 64.3 °F 51.9 °F 29.94 in Calm     64 % 0.00 in
08:53 64.7 °F 52.7 °F 29.94 in Calm     65 % 0.00 in
08:59 65.0 °F 52.5 °F 29.94 in Calm     64 % 0.00 in
09:04 65.4 °F 53.3 °F 29.94 in Calm     65 % 0.00 in
09:09 65.8 °F 53.3 °F 29.94 in Calm     64 % 0.00 in
09:14 66.1 °F 52.3 °F 29.95 in Calm     61 % 0.00 in
09:19 66.6 °F 54.5 °F 29.95 in Calm     65 % 0.00 in
09:24 66.7 °F 54.6 °F 29.95 in Calm     65 % 0.00 in
09:29 67.0 °F 54.0 °F 29.95 in Calm     63 % 0.00 in
09:34 67.2 °F 53.7 °F 29.95 in Calm     62 % 0.00 in
09:39 67.4 °F 54.4 °F 29.95 in Calm     63 % 0.00 in
09:44 67.7 °F 53.8 °F 29.95 in Calm     61 % 0.00 in
09:49 67.9 °F 52.6 °F 29.95 in Calm     58 % 0.00 in
09:54 68.3 °F 52.5 °F 29.95 in Calm     57 % 0.00 in
09:59 68.7 °F 52.8 °F 29.95 in Calm     57 % 0.00 in
10:04 69.0 °F 52.6 °F 29.95 in Calm     56 % 0.00 in
10:09 69.3 °F 52.4 °F 29.95 in Calm     55 % 0.00 in
10:14 69.6 °F 53.2 °F 29.95 in Calm     56 % 0.00 in
10:19 69.7 °F 54.3 °F 29.95 in Calm     58 % 0.00 in
10:24 69.8 °F 53.9 °F 29.95 in WSW 1.2 mph   57 % 0.00 in
10:29 69.9 °F 53.5 °F 29.95 in WSW 1.2 mph   56 % 0.00 in
10:34 69.9 °F 54.0 °F 29.95 in WSW 1.2 mph 1.2 mph 57 % 0.00 in
10:39 70.1 °F 54.2 °F 29.95 in Calm     57 % 0.00 in
10:44 70.3 °F 53.9 °F 29.95 in SSE 2.3 mph 2.3 mph 56 % 0.00 in
10:49 70.4 °F 54.4 °F 29.94 in Calm     57 % 0.00 in
10:54 70.5 °F 53.1 °F 29.94 in Calm     54 % 0.00 in
10:59 70.5 °F 52.5 °F 29.94 in SE 2.3 mph   53 % 0.00 in
11:04 70.4 °F 53.5 °F 29.94 in SE 1.2 mph   55 % 0.00 in
11:10 70.4 °F 54.0 °F 29.94 in Calm     56 % 0.00 in
11:15 70.6 °F 54.6 °F 29.94 in SSE 1.2 mph   57 % 0.00 in
11:20 70.7 °F 54.7 °F 29.93 in Calm     57 % 0.00 in
11:25 70.9 °F 53.9 °F 29.93 in SSE 1.2 mph 1.2 mph 55 % 0.00 in
11:26 70.9 °F 53.4 °F 29.93 in South 1.0 mph 1.0 mph 54 % 0.00 in
11:31 70.8 °F 53.3 °F 29.93 in SSE 1.2 mph 1.2 mph 54 % 0.00 in
11:36 70.9 °F 53.4 °F 29.93 in Calm     54 % 0.00 in
11:41 71.0 °F 53.0 °F 29.93 in SSE 1.2 mph 1.2 mph 53 % 0.00 in
11:46 70.9 °F 53.4 °F 29.92 in South 2.3 mph 2.3 mph 54 % 0.00 in
11:51 71.0 °F 54.5 °F 29.92 in ESE 1.2 mph 1.2 mph 56 % 0.00 in
11:56 71.1 °F 53.6 °F 29.92 in South 1.0 mph 1.0 mph 54 % 0.00 in
12:01 71.2 °F 53.7 °F 29.92 in SE 1.2 mph   54 % 0.00 in
12:06 71.2 °F 54.2 °F 29.92 in Calm     55 % 0.00 in
12:11 71.3 °F 54.3 °F 29.92 in Calm     55 % 0.00 in
12:16 71.3 °F 54.3 °F 29.92 in SE 1.2 mph 1.2 mph 55 % 0.00 in
12:21 71.4 °F 53.9 °F 29.92 in SE 1.2 mph   54 % 0.00 in
12:26 71.4 °F 54.4 °F 29.91 in SE 1.2 mph 1.2 mph 55 % 0.00 in
12:31 71.4 °F 54.4 °F 29.91 in ESE 1.2 mph 1.2 mph 55 % 0.00 in
12:36 71.4 °F 54.4 °F 29.91 in Calm     55 % 0.00 in
12:41 71.4 °F 54.4 °F 29.90 in Calm     55 % 0.00 in
12:46 71.4 °F 54.9 °F 29.90 in SE 1.2 mph   56 % 0.00 in
12:51 71.5 °F 55.5 °F 29.91 in Calm     57 % 0.00 in
12:56 71.5 °F 54.5 °F 29.91 in SSE 1.2 mph 1.2 mph 55 % 0.00 in
13:01 71.5 °F 55.0 °F 29.90 in SE 1.2 mph 1.2 mph 56 % 0.00 in
13:06 71.5 °F 54.0 °F 29.90 in SE 1.2 mph   54 % 0.00 in
13:11 71.6 °F 54.1 °F 29.89 in SE 1.2 mph 1.2 mph 54 % 0.00 in
13:16 71.8 °F 54.3 °F 29.89 in ESE 1.2 mph 1.2 mph 54 % 0.00 in
13:21 71.9 °F 54.3 °F 29.89 in SE 1.2 mph 1.2 mph 54 % 0.00 in
13:26 72.0 °F 54.4 °F 29.89 in SE 1.2 mph   54 % 0.00 in
13:31 72.1 °F 54.0 °F 29.89 in Calm     53 % 0.00 in
13:36 72.0 °F 54.9 °F 29.89 in Calm     55 % 0.00 in
13:41 71.6 °F 55.6 °F 29.89 in SE 1.2 mph   57 % 0.00 in
13:46 71.3 °F 55.8 °F 29.89 in Calm     58 % 0.00 in
13:51 71.2 °F 55.7 °F 29.89 in Calm     58 % 0.00 in
13:56 71.1 °F 55.6 °F 29.88 in Calm     58 % 0.00 in
14:01 71.0 °F 55.5 °F 29.89 in Calm     58 % 0.00 in
14:06 70.9 °F 57.2 °F 29.89 in Calm     62 % 0.00 in
14:11 70.7 °F 57.0 °F 29.88 in Calm     62 % 0.00 in
14:16 70.5 °F 55.9 °F 29.88 in Calm     60 % 0.00 in
14:21 70.4 °F 56.8 °F 29.89 in Calm     62 % 0.00 in
14:26 70.3 °F 57.1 °F 29.89 in Calm     63 % 0.00 in
14:31 70.2 °F 57.0 °F 29.89 in Calm     63 % 0.00 in
14:37 70.0 °F 56.4 °F 29.89 in Calm     62 % 0.00 in
14:42 69.9 °F 56.3 °F 29.89 in Calm     62 % 0.00 in
14:47 69.8 °F 56.2 °F 29.88 in Calm     62 % 0.00 in
14:52 69.8 °F 55.7 °F 29.89 in Calm     61 % 0.00 in
14:57 69.8 °F 56.2 °F 29.88 in Calm     62 % 0.00 in
15:07 69.7 °F 57.0 °F 29.89 in Calm     64 % 0.00 in
15:11 69.6 °F 56.0 °F 29.89 in Calm     62 % 0.00 in
15:17 69.7 °F 56.5 °F 29.89 in Calm     63 % 0.00 in
15:22 69.8 °F 57.1 °F 29.89 in Calm     64 % 0.00 in
15:27 69.8 °F 56.6 °F 29.89 in Calm     63 % 0.00 in
15:32 69.7 °F 57.0 °F 29.89 in Calm     64 % 0.00 in
15:37 69.7 °F 56.5 °F 29.89 in Calm     63 % 0.00 in
15:42 69.6 °F 56.4 °F 29.89 in Calm     63 % 0.00 in
15:47 69.5 °F 55.9 °F 29.89 in Calm     62 % 0.00 in
15:52 69.4 °F 55.4 °F 29.89 in Calm     61 % 0.00 in
15:57 69.4 °F 55.4 °F 29.89 in Calm     61 % 0.00 in
16:02 69.3 °F 55.3 °F 29.89 in Calm     61 % 0.00 in
16:07 69.2 °F 55.6 °F 29.89 in Calm     62 % 0.00 in
16:12 69.0 °F 55.9 °F 29.88 in Calm     63 % 0.00 in
16:17 68.7 °F 56.5 °F 29.88 in SE 1.2 mph 1.2 mph 65 % 0.00 in
16:22 68.5 °F 55.4 °F 29.88 in SE 1.2 mph 1.2 mph 63 % 0.00 in
16:27 68.3 °F 55.2 °F 29.88 in SE 2.3 mph 2.3 mph 63 % 0.00 in
16:32 68.1 °F 55.5 °F 29.88 in Calm     64 % 0.00 in
16:37 67.9 °F 55.7 °F 29.89 in Calm     65 % 0.00 in
16:42 67.7 °F 54.6 °F 29.89 in Calm     63 % 0.00 in
16:47 67.9 °F 54.4 °F 29.89 in East 1.2 mph 1.2 mph 62 % 0.00 in
16:52 68.1 °F 53.7 °F 29.90 in Calm     60 % 0.00 in
16:57 68.2 °F 53.3 °F 29.90 in Calm     59 % 0.00 in
17:02 68.1 °F 54.1 °F 29.90 in Calm     61 % 0.00 in
17:07 67.9 °F 54.0 °F 29.90 in Calm     61 % 0.00 in
17:12 67.7 °F 53.8 °F 29.91 in Calm     61 % 0.00 in
17:17 67.6 °F 53.7 °F 29.91 in Calm     61 % 0.00 in
17:22 67.4 °F 53.0 °F 29.90 in Calm     60 % 0.00 in
17:27 67.2 °F 52.8 °F 29.90 in Calm   0.3 mph 60 % 0.00 in
17:32 67.1 °F 52.7 °F 29.90 in Calm     60 % 0.00 in
17:37 67.0 °F 52.7 °F 29.90 in Calm     60 % 0.00 in
17:42 66.9 °F 52.1 °F 29.91 in Calm     59 % 0.00 in
17:47 66.9 °F 51.2 °F 29.90 in Calm     57 % 0.00 in
17:52 67.3 °F 51.5 °F 29.90 in Calm     57 % 0.00 in
17:57 67.5 °F 51.2 °F 29.90 in NNW 1.2 mph   56 % 0.00 in
18:02 67.8 °F 51.5 °F 29.91 in SW 1.2 mph 1.2 mph 56 % 0.00 in
18:07 67.9 °F 51.6 °F 29.91 in Calm     56 % 0.00 in
18:12 67.9 °F 52.1 °F 29.91 in Calm   0.4 mph 57 % 0.00 in
18:17 67.8 °F 52.0 °F 29.92 in SE 1.2 mph   57 % 0.00 in
18:22 67.7 °F 51.9 °F 29.92 in SE 1.2 mph   57 % 0.00 in
18:27 67.6 °F 51.8 °F 29.92 in NNW 2.3 mph 2.3 mph 57 % 0.00 in
18:33 67.5 °F 52.2 °F 29.92 in Calm     58 % 0.00 in
18:38 67.3 °F 52.5 °F 29.91 in Calm     59 % 0.00 in
18:43 67.2 °F 52.4 °F 29.91 in East 1.2 mph 1.2 mph 59 % 0.00 in
18:48 67.0 °F 52.2 °F 29.91 in Calm     59 % 0.00 in
18:53 66.8 °F 52.9 °F 29.92 in Calm     61 % 0.00 in
18:58 66.5 °F 52.6 °F 29.92 in Calm     61 % 0.00 in
19:03 66.3 °F 52.9 °F 29.93 in Calm     62 % 0.00 in
19:08 66.3 °F 52.4 °F 29.93 in Calm     61 % 0.00 in
19:13 66.2 °F 52.3 °F 29.93 in Calm     61 % 0.00 in
19:19 66.0 °F 52.6 °F 29.93 in Calm     62 % 0.00 in
19:23 66.0 °F 52.6 °F 29.93 in Calm     62 % 0.00 in
19:24 66.0 °F 52.6 °F 29.93 in Calm     62 % 0.00 in
19:28 66.0 °F 52.6 °F 29.93 in Calm     62 % 0.00 in
19:33 66.0 °F 53.0 °F 29.93 in Calm     63 % 0.00 in
19:38 65.8 °F 53.7 °F 29.94 in Calm     65 % 0.00 in
19:43 65.5 °F 53.0 °F 29.94 in Calm     64 % 0.00 in
19:48 65.4 °F 53.7 °F 29.94 in NW 2.0 mph 2.0 mph 66 % 0.00 in
19:53 65.5 °F 54.7 °F 29.94 in WNW 2.3 mph 2.3 mph 68 % 0.00 in
19:58 65.1 °F 55.5 °F 29.94 in Calm     71 % 0.00 in
20:03 64.5 °F 55.3 °F 29.94 in ENE 1.2 mph 1.2 mph 72 % 0.00 in
20:05 64.3 °F 55.1 °F 29.94 in East 1.2 mph 1.2 mph 72 % 0.00 in
20:10 63.8 °F 55.4 °F 29.94 in ESE 1.2 mph 1.2 mph 74 % 0.00 in
20:15 63.3 °F 55.6 °F 29.94 in SE 1.2 mph   76 % 0.00 in
20:20 63.0 °F 55.3 °F 29.94 in East 2.3 mph 2.3 mph 76 % 0.00 in
20:25 62.7 °F 55.7 °F 29.95 in ESE 1.2 mph 1.2 mph 78 % 0.00 in
20:30 62.5 °F 55.5 °F 29.95 in SSE 3.5 mph 3.5 mph 78 % 0.01 in
20:35 62.0 °F 55.8 °F 29.96 in NE 5.8 mph 5.8 mph 80 % 0.02 in
20:40 61.4 °F 55.9 °F 29.95 in East 3.0 mph 3.0 mph 82 % 0.04 in
20:45 61.1 °F 56.2 °F 29.95 in ESE 3.5 mph 3.5 mph 84 % 0.05 in
20:50 60.9 °F 56.0 °F 29.94 in ESE 2.3 mph 2.3 mph 84 % 0.05 in
20:55 60.8 °F 56.3 °F 29.94 in SE 1.2 mph 1.2 mph 85 % 0.05 in
21:00 60.6 °F 56.4 °F 29.95 in SE 2.3 mph 2.3 mph 86 % 0.05 in
21:05 60.7 °F 56.2 °F 29.95 in ESE 2.3 mph 2.3 mph 85 % 0.05 in
21:10 60.8 °F 56.3 °F 29.96 in SE 2.3 mph 2.3 mph 85 % 0.05 in
21:15 60.8 °F 56.6 °F 29.96 in Calm     86 % 0.06 in
21:20 60.5 °F 56.6 °F 29.96 in ESE 1.2 mph   87 % 0.06 in
21:25 60.3 °F 56.7 °F 29.96 in SE 1.2 mph   88 % 0.07 in
21:30 60.1 °F 56.5 °F 29.97 in SSW 1.2 mph 1.2 mph 88 % 0.06 in
21:35 60.0 °F 56.7 °F 29.96 in Calm     89 % 0.05 in
21:40 59.9 °F 56.6 °F 29.96 in Calm     89 % 0.03 in
21:45 59.7 °F 56.8 °F 29.96 in Calm     90 % 0.02 in
21:50 59.6 °F 56.7 °F 29.96 in SE 1.2 mph   90 % 0.02 in
21:55 59.5 °F 56.6 °F 29.96 in SE 1.0 mph 1.0 mph 90 % 0.02 in
22:00 59.5 °F 56.6 °F 29.96 in Calm     90 % 0.02 in
22:05 59.6 °F 56.7 °F 29.96 in Calm     90 % 0.02 in
22:10 59.6 °F 56.7 °F 29.96 in Calm     90 % 0.02 in
22:15 59.7 °F 56.8 °F 29.96 in Calm     90 % 0.01 in
22:20 59.7 °F 56.8 °F 29.96 in Calm     90 % 0.01 in
22:25 59.7 °F 56.8 °F 29.95 in SE 1.2 mph 1.2 mph 90 % 0.00 in
22:30 59.5 °F 56.6 °F 29.96 in Calm     90 % 0.00 in
22:35 59.4 °F 56.5 °F 29.95 in Calm     90 % 0.00 in
22:40 59.3 °F 56.7 °F 29.95 in Calm     91 % 0.00 in
22:45 59.3 °F 56.7 °F 29.95 in Calm     91 % 0.00 in
22:50 59.1 °F 56.8 °F 29.95 in Calm     92 % 0.00 in
22:55 58.9 °F 56.6 °F 29.95 in NW 1.2 mph 1.2 mph 92 % 0.00 in
23:00 59.0 °F 56.7 °F 29.95 in Calm     92 % 0.00 in
23:05 59.0 °F 56.7 °F 29.95 in Calm     92 % 0.00 in
23:10 58.9 °F 56.6 °F 29.96 in Calm     92 % 0.00 in
23:15 58.8 °F 56.5 °F 29.95 in Calm     92 % 0.00 in
23:20 58.8 °F 56.8 °F 29.96 in Calm     93 % 0.00 in
23:25 58.8 °F 56.8 °F 29.96 in Calm     93 % 0.00 in
23:30 58.7 °F 56.7 °F 29.96 in Calm     93 % 0.00 in
23:35 58.6 °F 56.6 °F 29.96 in Calm     93 % 0.00 in
23:40 58.5 °F 56.5 °F 29.96 in Calm     93 % 0.00 in
23:45 58.5 °F 56.5 °F 29.96 in Calm     93 % 0.00 in
23:50 58.4 °F 56.4 °F 29.96 in Calm     93 % 0.00 in
23:55 58.4 °F 56.4 °F 29.95 in Calm     93 % 0.00 in
Park Place, Exeter, Tulare County, California, USA
Compliments of Weather Underground - 2.75 mb